createdAt,value
2018-11-12T00:01:11.528Z,65.03
2018-11-12T00:03:41.737Z,58.67
2018-11-12T00:06:12.130Z,58.53
2018-11-12T00:08:42.612Z,62.53
2018-11-12T00:11:12.914Z,61.87
2018-11-12T00:13:43.228Z,57.60
2018-11-12T00:16:13.752Z,61.23
2018-11-12T00:18:44.082Z,64.37
2018-11-12T00:21:14.438Z,62.33
2018-11-12T00:23:44.937Z,60.20
2018-11-12T00:26:15.682Z,62.43
2018-11-12T00:28:46.084Z,63.93
2018-11-12T00:31:16.555Z,58.20
2018-11-12T00:33:46.803Z,61.07
2018-11-12T00:36:17.133Z,70.17
2018-11-12T00:38:47.427Z,68.30
2018-11-12T00:41:17.817Z,72.93
2018-11-12T00:43:48.242Z,64.23
2018-11-12T00:46:18.757Z,71.30
2018-11-12T00:48:49.263Z,60.40
2018-11-12T00:51:19.607Z,71.80
2018-11-12T00:53:49.907Z,65.83
2018-11-12T00:56:20.207Z,72.00
2018-11-12T00:58:50.532Z,65.40
2018-11-12T01:01:21.017Z,78.97
2018-11-12T01:03:51.300Z,68.80
2018-11-12T01:06:21.653Z,75.23
2018-11-12T01:08:52.048Z,71.80
2018-11-12T01:11:22.402Z,72.37
2018-11-12T01:13:52.867Z,74.50
2018-11-12T01:16:23.123Z,67.43
2018-11-12T01:18:53.497Z,78.93
2018-11-12T01:21:23.687Z,82.03
2018-11-12T01:23:54.192Z,78.27
2018-11-12T01:26:24.437Z,74.50
2018-11-12T01:28:54.797Z,83.60
2018-11-12T01:31:25.049Z,81.10
2018-11-12T01:33:55.252Z,90.97
2018-11-12T01:36:25.872Z,75.93
2018-11-12T01:38:56.228Z,60.30
2018-11-12T01:41:26.573Z,67.80
2018-11-12T01:43:56.917Z,56.57
2018-11-12T01:46:27.232Z,60.00
2018-11-12T01:48:57.588Z,61.53
2018-11-12T01:51:27.792Z,51.83
2018-11-12T01:53:58.057Z,51.47
2018-11-12T01:56:28.367Z,56.40
2018-11-12T01:58:58.773Z,63.73
2018-11-12T02:01:29.006Z,61.37
2018-11-12T02:03:59.296Z,61.40
2018-11-12T02:06:29.702Z,68.80
2018-11-12T02:09:00.021Z,74.00
2018-11-12T02:11:30.252Z,64.03
2018-11-12T02:14:00.537Z,63.50
2018-11-12T02:16:30.786Z,71.60
2018-11-12T02:19:00.992Z,58.27
2018-11-12T02:21:31.230Z,56.80
2018-11-12T02:24:01.593Z,61.17
2018-11-12T02:26:31.727Z,65.33
2018-11-12T02:29:02.123Z,62.13
2018-11-12T02:31:32.393Z,56.83
2018-11-12T02:34:02.627Z,82.73
2018-11-12T02:36:32.808Z,65.93
2018-11-12T02:39:03.098Z,68.50
2018-11-12T02:41:33.317Z,69.53
2018-11-12T02:44:03.637Z,65.30
2018-11-12T02:46:33.892Z,67.67
2018-11-12T02:49:04.158Z,68.40
2018-11-12T02:51:34.449Z,57.30
2018-11-12T02:54:05.439Z,58.00
2018-11-12T02:56:36.262Z,67.27
2018-11-12T02:59:06.608Z,63.90
2018-11-12T03:01:36.827Z,70.60
2018-11-12T03:04:07.130Z,65.47
2018-11-12T03:06:37.458Z,60.83
2018-11-12T03:09:12.273Z,60.10
2018-11-12T03:11:42.704Z,55.47
2018-11-12T03:14:13.127Z,57.67
2018-11-12T03:16:43.357Z,55.33
2018-11-12T03:19:13.607Z,55.87
2018-11-12T03:21:43.877Z,61.37
2018-11-12T03:24:14.264Z,56.23
2018-11-12T03:26:44.574Z,54.10
2018-11-12T03:29:14.807Z,59.77
2018-11-12T03:31:45.148Z,56.30
2018-11-12T03:34:15.377Z,68.00
2018-11-12T03:36:45.737Z,60.23
2018-11-12T03:39:16.072Z,65.37
2018-11-12T03:41:46.252Z,62.90
2018-11-12T03:44:16.631Z,62.63
2018-11-12T03:46:47.172Z,78.13
2018-11-12T03:49:17.352Z,69.97
2018-11-12T03:51:47.673Z,76.47
2018-11-12T03:54:18.054Z,78.70
2018-11-12T03:56:48.348Z,80.87
2018-11-12T03:59:18.592Z,66.53
2018-11-12T04:01:49.122Z,64.10
2018-11-12T04:04:19.372Z,64.63
2018-11-12T04:06:49.702Z,64.57
2018-11-12T04:09:20.127Z,64.67
2018-11-12T04:11:50.398Z,54.37
2018-11-12T04:14:20.772Z,53.97
2018-11-12T04:16:51.368Z,61.70
2018-11-12T04:19:21.807Z,58.70
2018-11-12T04:21:52.212Z,60.40
2018-11-12T04:24:22.466Z,55.40
2018-11-12T04:30:14.356Z,69.00
2018-11-12T04:32:46.057Z,65.03
2018-11-12T04:35:16.702Z,60.40
2018-11-12T04:37:47.347Z,58.57
2018-11-12T04:40:18.760Z,57.37
2018-11-12T04:42:49.997Z,65.17
2018-11-12T04:45:21.602Z,76.07
2018-11-12T04:47:52.820Z,69.37
2018-11-12T04:50:27.332Z,74.17
2018-11-12T04:52:57.677Z,61.63
2018-11-12T04:55:28.011Z,59.37
2018-11-12T04:57:58.308Z,81.47
2018-11-12T05:00:29.433Z,82.03
2018-11-12T05:02:59.757Z,83.13
2018-11-12T05:05:30.261Z,80.07
2018-11-12T05:08:00.723Z,71.67
2018-11-12T05:10:30.990Z,69.77
2018-11-12T05:13:01.303Z,64.50
2018-11-12T05:15:31.668Z,74.97
2018-11-12T05:18:01.977Z,72.50
2018-11-12T05:20:32.528Z,58.83
2018-11-12T05:23:02.938Z,67.20
2018-11-12T05:25:33.277Z,55.50
2018-11-12T05:28:03.502Z,51.13
2018-11-12T05:30:34.927Z,56.73
2018-11-12T05:33:05.418Z,57.70
2018-11-12T05:35:35.952Z,69.97
2018-11-12T05:38:07.455Z,56.27
2018-11-12T05:40:38.228Z,54.33
2018-11-12T05:43:08.532Z,58.00
2018-11-12T05:45:39.413Z,60.03
2018-11-12T05:48:09.633Z,51.97
2018-11-12T05:50:40.054Z,62.60
2018-11-12T05:53:10.386Z,60.50
2018-11-12T05:55:40.827Z,55.57
2018-11-12T05:58:11.217Z,52.90
2018-11-12T06:00:41.538Z,57.17
2018-11-12T06:03:12.007Z,53.37
2018-11-12T06:05:42.249Z,49.90
2018-11-12T06:08:12.757Z,43.67
2018-11-12T06:10:43.192Z,47.63
2018-11-12T06:13:13.782Z,48.03
2018-11-12T06:15:44.102Z,44.90
2018-11-12T06:18:15.483Z,45.03
2018-11-12T06:20:45.688Z,42.47
2018-11-12T06:23:16.107Z,46.47
2018-11-12T06:25:46.358Z,39.43
2018-11-12T06:28:16.678Z,41.23
2018-11-12T06:30:46.887Z,35.17
2018-11-12T06:33:17.368Z,33.33
2018-11-12T06:35:47.603Z,37.10
2018-11-12T06:38:17.917Z,36.97
2018-11-12T06:40:48.233Z,35.00
2018-11-12T06:43:25.334Z,41.70
2018-11-12T06:45:55.718Z,30.83
2018-11-12T06:48:26.068Z,33.33
2018-11-12T06:50:56.342Z,32.30
2018-11-12T06:53:26.869Z,27.73
2018-11-12T06:55:57.092Z,25.00
2018-11-12T06:58:28.498Z,25.27
2018-11-12T07:00:58.900Z,22.50
2018-11-12T07:03:29.862Z,23.97
2018-11-12T07:06:00.262Z,25.17
2018-11-12T07:08:30.692Z,20.43
2018-11-12T07:11:01.138Z,21.40
2018-11-12T07:13:31.722Z,22.17
2018-11-12T07:16:02.144Z,22.73
2018-11-12T07:18:32.683Z,20.43
2018-11-12T07:21:03.072Z,18.30
2018-11-12T07:23:33.493Z,20.20
2018-11-12T07:26:03.917Z,20.73
2018-11-12T07:28:34.463Z,16.80
2018-11-12T07:31:04.943Z,26.03
2018-11-12T07:33:35.437Z,18.30
2018-11-12T07:36:05.893Z,26.70
2018-11-12T07:38:36.322Z,19.33
2018-11-12T07:41:06.783Z,27.50
2018-11-12T07:43:37.087Z,17.93
2018-11-12T07:46:07.636Z,16.67
2018-11-12T07:48:38.160Z,14.43
2018-11-12T07:51:08.400Z,15.83
2018-11-12T07:53:38.568Z,18.67
2018-11-12T07:56:09.106Z,22.03
2018-11-12T07:58:39.354Z,21.00
2018-11-12T08:01:09.993Z,16.43
2018-11-12T08:03:40.314Z,16.67
2018-11-12T08:06:10.978Z,11.00
2018-11-12T08:08:41.398Z,12.50
2018-11-12T08:11:11.893Z,15.10
2018-11-12T08:13:42.123Z,8.07
2018-11-12T08:16:12.573Z,9.17
2018-11-12T08:18:42.942Z,12.37
2018-11-12T08:21:13.347Z,12.37
2018-11-12T08:23:43.808Z,9.13
2018-11-12T08:26:14.257Z,16.37
2018-11-12T08:28:44.742Z,17.40
2018-11-12T08:31:15.323Z,18.07
2018-11-12T08:33:45.709Z,17.57
2018-11-12T08:36:16.138Z,17.43
2018-11-12T08:39:01.737Z,22.97
2018-11-12T08:41:38.513Z,15.57
2018-11-12T08:44:09.268Z,15.20
2018-11-12T08:46:39.797Z,18.00
2018-11-12T08:49:10.285Z,14.93
2018-11-12T08:51:40.657Z,13.93
2018-11-12T08:54:11.113Z,22.13
2018-11-12T08:56:41.678Z,17.87
2018-11-12T08:59:12.521Z,17.33
2018-11-12T09:01:43.693Z,14.73
2018-11-12T09:04:14.776Z,20.20
2018-11-12T09:06:45.498Z,13.73
2018-11-12T09:09:16.324Z,15.13
2018-11-12T09:11:46.913Z,14.03
2018-11-12T09:14:18.547Z,10.10
2018-11-12T09:16:51.333Z,10.03
2018-11-12T09:19:22.078Z,15.73
2018-11-12T09:21:52.487Z,14.03
2018-11-12T09:24:24.122Z,18.90
2018-11-12T09:26:54.652Z,12.87
2018-11-12T09:29:25.828Z,12.00
2018-11-12T09:31:56.399Z,14.00
2018-11-12T09:34:27.128Z,14.90
2018-11-12T09:36:57.514Z,13.13
2018-11-12T09:39:28.567Z,7.77
2018-11-12T09:41:59.012Z,11.73
2018-11-12T09:44:29.655Z,13.73
2018-11-12T09:47:00.362Z,15.33
2018-11-12T09:49:32.679Z,11.50
2018-11-12T09:52:03.073Z,15.00
2018-11-12T09:54:33.796Z,14.33
2018-11-12T09:57:04.457Z,17.47
2018-11-12T09:59:35.247Z,12.83
2018-11-12T10:02:06.093Z,9.67
2018-11-12T10:04:38.204Z,13.03
2018-11-12T10:07:09.860Z,10.03
2018-11-12T10:09:41.071Z,9.77
2018-11-12T10:12:12.115Z,8.73
2018-11-12T10:14:42.993Z,12.97
2018-11-12T10:17:14.478Z,11.00
2018-11-12T10:19:41.757Z,14.43
2018-11-12T10:22:12.257Z,6.90
2018-11-12T10:24:43.337Z,11.17
2018-11-12T10:27:14.035Z,10.90
2018-11-12T10:29:44.778Z,9.93
2018-11-12T10:32:15.353Z,12.83
2018-11-12T10:34:46.092Z,7.77
2018-11-12T10:37:17.518Z,7.43
2018-11-12T10:39:48.253Z,8.03
2018-11-12T10:42:18.944Z,5.33
2018-11-12T10:44:49.767Z,7.17
2018-11-12T10:47:20.118Z,6.57
2018-11-12T10:49:50.803Z,7.67
2018-11-12T10:52:22.193Z,8.93
2018-11-12T10:55:04.899Z,11.50
2018-11-12T10:57:23.767Z,10.93
2018-11-12T10:59:54.593Z,11.50
2018-11-12T11:02:31.684Z,9.90
2018-11-12T11:05:02.778Z,7.50
2018-11-12T11:07:33.193Z,8.77
2018-11-12T11:10:03.687Z,7.60
2018-11-12T11:12:34.362Z,7.73
2018-11-12T11:15:04.998Z,9.93
2018-11-12T11:17:35.478Z,9.77
2018-11-12T11:20:06.762Z,9.33
2018-11-12T11:22:37.258Z,8.87
2018-11-12T11:25:08.743Z,8.30
2018-11-12T11:27:39.767Z,7.97
2018-11-12T11:30:13.269Z,8.30
2018-11-12T11:32:44.047Z,6.77
2018-11-12T11:35:16.208Z,6.83
2018-11-12T11:37:47.875Z,9.73
2018-11-12T11:40:22.048Z,11.77
2018-11-12T11:42:52.553Z,10.00
2018-11-12T11:45:23.623Z,13.63
2018-11-12T11:47:54.495Z,7.30
2018-11-12T11:50:26.754Z,9.10
2018-11-12T11:52:57.359Z,7.57
2018-11-12T11:55:28.068Z,5.50
2018-11-12T11:57:58.473Z,7.17
2018-11-12T12:00:30.328Z,7.23
2018-11-12T12:03:01.610Z,6.03
2018-11-12T12:05:32.503Z,5.73
2018-11-12T12:08:03.309Z,6.60
2018-11-12T12:10:35.888Z,5.37
2018-11-12T12:13:07.262Z,5.77
2018-11-12T12:15:38.298Z,8.07
2018-11-12T12:18:08.728Z,6.93
2018-11-12T12:20:39.433Z,6.67
2018-11-12T12:23:09.917Z,5.50
2018-11-12T12:25:40.712Z,5.03
2018-11-12T12:28:12.113Z,6.50
2018-11-12T12:30:42.778Z,5.63
2018-11-12T12:33:15.118Z,6.70
2018-11-12T12:35:46.384Z,6.27
2018-11-12T12:38:16.883Z,7.57
2018-11-12T12:40:48.590Z,7.47
2018-11-12T12:43:19.983Z,11.10
2018-11-12T12:45:51.067Z,8.33
2018-11-12T12:48:22.233Z,5.57
2018-11-12T12:50:52.958Z,9.37
2018-11-12T12:53:24.064Z,9.50
2018-11-12T12:55:55.643Z,8.47
2018-11-12T12:58:26.404Z,5.93
2018-11-12T13:00:57.088Z,6.20
2018-11-12T13:03:27.705Z,5.87
2018-11-12T13:05:58.503Z,8.73
2018-11-12T13:08:29.053Z,7.67
2018-11-12T13:10:59.913Z,9.57
2018-11-12T13:13:30.528Z,7.27
2018-11-12T13:16:01.341Z,9.13
2018-11-12T13:18:32.168Z,6.53
2018-11-12T13:21:02.848Z,9.80
2018-11-12T13:23:33.723Z,10.57
2018-11-12T13:26:04.448Z,11.53
2018-11-12T13:28:35.213Z,9.57
2018-11-12T13:31:05.733Z,10.20
2018-11-12T13:33:36.418Z,14.20
2018-11-12T13:36:07.569Z,12.47
2018-11-12T13:38:37.998Z,15.90
2018-11-12T13:41:08.429Z,14.90
2018-11-12T13:43:38.973Z,13.57
2018-11-12T13:46:09.398Z,13.13
2018-11-12T13:48:40.873Z,14.90
2018-11-12T13:51:11.139Z,8.33
2018-11-12T13:53:42.239Z,18.53
2018-11-12T13:56:12.589Z,13.20
2018-11-12T13:58:42.928Z,15.80
2018-11-12T14:01:13.231Z,23.37
2018-11-12T14:03:43.468Z,19.17
2018-11-12T14:06:13.968Z,14.37
2018-11-12T14:08:44.519Z,15.33
2018-11-12T14:11:14.898Z,23.37
2018-11-12T14:13:46.977Z,19.87
2018-11-12T14:16:17.828Z,24.73
2018-11-12T14:18:48.614Z,21.77
2018-11-12T14:21:19.146Z,25.43
2018-11-12T14:23:49.571Z,22.43
2018-11-12T14:26:20.309Z,28.63
2018-11-12T14:28:50.929Z,26.17
2018-11-12T14:31:21.379Z,25.53
2018-11-12T14:33:52.704Z,24.23
2018-11-12T14:36:23.404Z,27.30
2018-11-12T14:38:54.339Z,29.77
2018-11-12T14:41:24.853Z,43.43
2018-11-12T14:43:55.175Z,44.23
2018-11-12T14:46:25.776Z,44.73
2018-11-12T14:48:56.273Z,41.93
2018-11-12T14:51:26.619Z,46.20
2018-11-12T14:53:58.089Z,44.93
2018-11-12T14:56:28.659Z,36.87
2018-11-12T14:59:00.124Z,44.93
2018-11-12T15:01:30.673Z,40.33
2018-11-12T15:04:01.233Z,41.63
2018-11-12T15:06:32.339Z,40.13
2018-11-12T15:09:03.196Z,35.27
2018-11-12T15:11:39.744Z,39.00
2018-11-12T15:14:11.333Z,42.23
2018-11-12T15:16:41.823Z,47.07
2018-11-12T15:19:12.313Z,42.73
2018-11-12T15:21:43.125Z,40.37
2018-11-12T15:24:13.413Z,44.37
2018-11-12T15:26:43.814Z,49.40
2018-11-12T15:29:14.201Z,52.13
2018-11-12T15:31:46.558Z,43.67
2018-11-12T15:34:16.793Z,48.10
2018-11-12T15:36:47.717Z,33.53
2018-11-12T15:39:18.143Z,39.97
2018-11-12T15:41:48.575Z,35.50
2018-11-12T15:44:18.973Z,37.30
2018-11-12T15:46:49.303Z,36.27
2018-11-12T15:49:19.904Z,43.83
2018-11-12T15:51:50.473Z,27.70
2018-11-12T15:54:21.032Z,28.80
2018-11-12T15:56:51.374Z,32.53
2018-11-12T15:59:21.963Z,42.40
2018-11-12T16:01:52.428Z,42.67
2018-11-12T16:04:23.179Z,32.70
2018-11-12T16:06:53.694Z,38.13
2018-11-12T16:09:24.318Z,32.57
2018-11-12T16:11:54.916Z,29.80
2018-11-12T16:14:25.133Z,28.07
2018-11-12T16:16:55.732Z,28.60
2018-11-12T16:19:26.155Z,26.10
2018-11-12T16:21:56.528Z,34.53
2018-11-12T16:24:26.868Z,28.53
2018-11-12T16:26:57.588Z,25.70
2018-11-12T16:29:27.933Z,33.27
2018-11-12T16:31:58.384Z,28.97
2018-11-12T16:34:28.803Z,21.10
2018-11-12T16:36:59.499Z,22.60
2018-11-12T16:39:29.773Z,29.33
2018-11-12T16:42:00.074Z,33.97
2018-11-12T16:44:30.344Z,23.60
2018-11-12T16:47:00.793Z,28.00
2018-11-12T16:49:31.049Z,30.57
2018-11-12T16:52:01.558Z,25.13
2018-11-12T16:54:31.908Z,32.00
2018-11-12T16:57:02.319Z,35.50
2018-11-12T16:59:32.618Z,26.90
2018-11-12T17:02:03.029Z,32.90
2018-11-12T17:04:33.334Z,28.07
2018-11-12T17:07:03.783Z,26.17
2018-11-12T17:09:34.228Z,27.73
2018-11-12T17:12:04.942Z,29.13
2018-11-12T17:14:35.224Z,24.77
2018-11-12T17:17:05.638Z,24.00
2018-11-12T17:19:37.328Z,28.93
2018-11-12T17:22:07.814Z,34.17
2018-11-12T17:24:38.239Z,31.20
2018-11-12T17:27:09.238Z,28.93
2018-11-12T17:29:39.553Z,30.40
2018-11-12T17:32:10.298Z,28.13
2018-11-12T17:34:40.880Z,26.87
2018-11-12T17:37:11.617Z,26.13
2018-11-12T17:39:42.013Z,22.00
2018-11-12T17:42:12.503Z,27.27
2018-11-12T17:44:42.879Z,26.97
2018-11-12T17:47:13.238Z,28.13
2018-11-12T17:49:43.723Z,24.37
2018-11-12T17:52:14.088Z,32.40
2018-11-12T17:54:44.473Z,47.07
2018-11-12T17:57:14.879Z,35.73
2018-11-12T17:59:45.208Z,56.17
2018-11-12T18:02:15.673Z,22.77
2018-11-12T18:04:45.988Z,31.53
2018-11-12T18:07:16.631Z,29.23
2018-11-12T18:09:46.943Z,37.00
2018-11-12T18:12:17.244Z,37.50
2018-11-12T18:14:47.533Z,35.00
2018-11-12T18:17:18.013Z,42.50
2018-11-12T18:19:48.348Z,39.87
2018-11-12T18:22:18.753Z,34.50
2018-11-12T18:24:48.952Z,31.70
2018-11-12T18:27:20.442Z,34.13
2018-11-12T18:29:51.059Z,28.27
2018-11-12T18:32:21.520Z,39.40
2018-11-12T18:34:51.862Z,33.00
2018-11-12T18:37:25.653Z,41.40
2018-11-12T18:39:56.422Z,31.73
2018-11-12T18:42:26.748Z,35.57
2018-11-12T18:44:57.193Z,45.77
2018-11-12T18:47:27.487Z,32.67
2018-11-12T18:49:59.318Z,33.90
2018-11-12T18:52:29.830Z,35.60
2018-11-12T18:55:00.107Z,34.57
2018-11-12T18:57:30.515Z,42.40
2018-11-12T19:00:00.757Z,39.63
2018-11-12T19:02:31.127Z,35.33
2018-11-12T19:05:01.643Z,31.73
2018-11-12T19:07:33.479Z,31.53
2018-11-12T19:10:05.222Z,36.33
2018-11-12T19:12:35.732Z,34.40
2018-11-12T19:15:07.307Z,39.47
2018-11-12T19:17:38.053Z,36.73
2018-11-12T19:20:08.717Z,30.67
2018-11-12T19:22:39.288Z,53.23
2018-11-12T19:25:11.139Z,36.97
2018-11-12T19:27:41.863Z,29.80
2018-11-12T19:30:16.263Z,34.57
2018-11-12T19:32:47.058Z,40.23
2018-11-12T19:35:18.703Z,37.40
2018-11-12T19:37:49.337Z,25.13
2018-11-12T19:40:21.001Z,33.13
2018-11-12T19:42:52.432Z,35.87
2018-11-12T19:45:22.742Z,29.63
2018-11-12T19:47:53.743Z,31.30
2018-11-12T19:50:25.222Z,29.20
2018-11-12T19:52:57.597Z,36.63
2018-11-12T19:55:27.957Z,28.83
2018-11-12T19:57:58.370Z,36.67
2018-11-12T20:00:29.528Z,32.63
2018-11-12T20:03:01.459Z,26.57
2018-11-12T20:05:31.718Z,27.80
2018-11-12T20:08:02.315Z,28.27
2018-11-12T20:10:32.828Z,26.03
2018-11-12T20:13:03.383Z,26.80
2018-11-12T20:15:34.546Z,23.63
2018-11-12T20:18:05.043Z,29.57
2018-11-12T20:20:35.858Z,33.27
2018-11-12T20:23:06.238Z,35.30
2018-11-12T20:25:36.793Z,31.07
2018-11-12T20:28:07.294Z,27.23
2018-11-12T20:30:39.403Z,29.43
2018-11-12T20:33:09.918Z,24.30
2018-11-12T20:35:40.304Z,23.00
2018-11-12T20:38:10.773Z,26.10
2018-11-12T20:40:41.150Z,25.10
2018-11-12T20:43:11.461Z,28.60
2018-11-12T20:45:41.754Z,30.83
2018-11-12T20:48:12.191Z,24.93
2018-11-12T20:50:42.519Z,30.27
2018-11-12T20:53:13.004Z,25.47
2018-11-12T20:55:43.783Z,29.20
2018-11-12T20:58:14.502Z,22.77
2018-11-12T21:00:45.234Z,27.60
2018-11-12T21:03:17.594Z,27.00
2018-11-12T21:05:48.519Z,26.37
2018-11-12T21:08:19.919Z,25.70
2018-11-12T21:10:53.097Z,28.33
2018-11-12T21:13:23.852Z,30.90
2018-11-12T21:15:57.429Z,26.60
2018-11-12T21:18:28.074Z,30.57
2018-11-12T21:20:58.364Z,34.57
2018-11-12T21:23:28.725Z,32.37
2018-11-12T21:25:59.879Z,37.90
2018-11-12T21:28:31.461Z,26.80
2018-11-12T21:31:02.484Z,39.50
2018-11-12T21:33:32.749Z,33.13
2018-11-12T21:36:03.214Z,30.30
2018-11-12T21:38:33.889Z,30.53
2018-11-12T21:41:04.769Z,26.70
2018-11-12T21:43:35.526Z,26.67
2018-11-12T21:46:05.989Z,32.57
2018-11-12T21:48:36.549Z,32.47
2018-11-12T21:51:07.369Z,26.95
2018-11-12T21:53:37.654Z,27.03
2018-11-12T21:56:08.129Z,31.33
2018-11-12T21:58:38.510Z,30.17
2018-11-12T22:01:09.893Z,31.93
2018-11-12T22:03:40.255Z,26.60
2018-11-12T22:06:11.534Z,28.65
2018-11-12T22:08:42.629Z,30.77
2018-11-12T22:11:13.135Z,34.10
2018-11-12T22:13:43.370Z,32.30
2018-11-12T22:16:13.822Z,30.50
2018-11-12T22:18:45.057Z,25.63
2018-11-12T22:21:15.490Z,28.60
2018-11-12T22:23:45.745Z,34.47
2018-11-12T22:26:16.101Z,27.40
2018-11-12T22:28:46.480Z,32.43
2018-11-12T22:31:16.905Z,33.43
2018-11-12T22:33:47.224Z,39.60
2018-11-12T22:36:17.640Z,30.47
2018-11-12T22:38:48.109Z,34.47
2018-11-12T22:41:18.449Z,32.73
2018-11-12T22:43:48.799Z,36.00
2018-11-12T22:46:19.219Z,37.33
2018-11-12T22:48:49.505Z,36.53
2018-11-12T22:51:19.959Z,28.67
2018-11-12T22:53:50.277Z,33.03
2018-11-12T22:56:20.634Z,37.03
2018-11-12T22:58:51.289Z,29.70
2018-11-12T23:01:21.714Z,25.50
2018-11-12T23:03:52.009Z,25.43
2018-11-12T23:06:22.409Z,31.27
2018-11-12T23:08:52.612Z,27.53
2018-11-12T23:11:22.864Z,34.43
2018-11-12T23:13:53.129Z,36.87
2018-11-12T23:16:23.344Z,38.07
2018-11-12T23:18:54.099Z,36.37
2018-11-12T23:21:24.384Z,29.93
2018-11-12T23:23:54.629Z,32.87
2018-11-12T23:26:24.964Z,33.43
2018-11-12T23:28:55.229Z,29.10
2018-11-12T23:31:25.531Z,27.83
2018-11-12T23:33:55.784Z,29.43
2018-11-12T23:36:26.424Z,27.23
2018-11-12T23:38:57.380Z,34.27
2018-11-12T23:41:27.769Z,30.57
2018-11-12T23:43:58.725Z,32.43
2018-11-12T23:46:29.039Z,30.20
2018-11-12T23:48:59.264Z,27.70
2018-11-12T23:51:29.679Z,27.80
2018-11-12T23:54:00.055Z,26.80
2018-11-12T23:56:30.354Z,30.37
2018-11-12T23:59:00.604Z,26.40
